createdAt,value
2022-10-22T00:01:11.940Z,100608.88
2022-10-22T00:11:18.821Z,100615.84
2022-10-22T00:21:21.957Z,100622.88
2022-10-22T00:31:26.493Z,100630.75
2022-10-22T00:41:29.694Z,100616.06
2022-10-22T00:51:35.900Z,100605.50
2022-10-22T01:01:39.115Z,100594.41
2022-10-22T01:11:54.313Z,100590.13
2022-10-22T01:22:00.178Z,100591.09
2022-10-22T01:32:09.962Z,100594.56
2022-10-22T01:42:13.717Z,100586.66
2022-10-22T01:52:27.929Z,100582.34
2022-10-22T02:02:40.681Z,100564.06
2022-10-22T02:12:46.240Z,100544.91
2022-10-22T02:22:49.517Z,100535.31
2022-10-22T02:32:59.016Z,100553.78
2022-10-22T02:43:02.376Z,100540.78
2022-10-22T02:53:06.824Z,100561.91
2022-10-22T03:03:09.947Z,100577.69
2022-10-22T03:13:14.487Z,100606.59
2022-10-22T03:23:20.211Z,100598.09
2022-10-22T03:33:24.750Z,100589.44
2022-10-22T03:43:28.080Z,100579.87
2022-10-22T03:53:32.681Z,100565.94
2022-10-22T04:03:35.879Z,100537.22
2022-10-22T04:13:40.614Z,100558.13
2022-10-22T04:23:46.264Z,100562.47
2022-10-22T04:33:54.016Z,100545.06
2022-10-22T04:43:57.763Z,100567.72
2022-10-22T04:54:02.602Z,100570.31
2022-10-22T05:04:07.226Z,100577.22
2022-10-22T05:14:12.021Z,100554.59
2022-10-22T05:24:15.231Z,100544.09
2022-10-22T05:34:19.634Z,100564.94
2022-10-22T05:44:22.723Z,100564.94
2022-10-22T05:54:27.443Z,100576.25
2022-10-22T06:04:30.535Z,100581.50
2022-10-22T06:14:34.992Z,100581.53
2022-10-22T06:24:40.459Z,100609.50
2022-10-22T06:34:48.283Z,100612.12
2022-10-22T06:44:51.486Z,100590.25
2022-10-22T06:54:55.976Z,100602.87
2022-10-22T07:04:59.007Z,100609.72
2022-10-22T07:15:03.520Z,100605.63
2022-10-22T07:25:07.594Z,100603.37
2022-10-22T07:35:12.303Z,100604.66
2022-10-22T07:45:15.456Z,100615.16
2022-10-22T07:55:20.224Z,100579.56
2022-10-22T08:05:23.390Z,100592.63
2022-10-22T08:15:28.174Z,100576.91
2022-10-22T08:25:31.672Z,100569.34
2022-10-22T08:35:36.359Z,100581.19
2022-10-22T08:45:42.309Z,100591.41
2022-10-22T08:55:46.927Z,100591.72
2022-10-22T09:05:57.796Z,100594.03
2022-10-22T09:16:10.108Z,100591.84
2022-10-22T09:26:15.754Z,100578.34
2022-10-22T09:36:23.605Z,100597.03
2022-10-22T09:46:30.154Z,100598.72
2022-10-22T09:56:37.750Z,100599.06
2022-10-22T10:06:42.458Z,100593.19
2022-10-22T10:16:57.905Z,100588.50
2022-10-22T10:27:04.352Z,100576.84
2022-10-22T10:37:18.244Z,100549.25
2022-10-22T10:47:33.526Z,100557.03
2022-10-22T10:57:43.626Z,100566.44
2022-10-22T11:07:54.953Z,100575.53
2022-10-22T11:18:04.590Z,100571.97
2022-10-22T11:28:12.830Z,100583.19
2022-10-22T11:38:19.008Z,100566.47
2022-10-22T11:48:28.310Z,100558.25
2022-10-22T11:58:35.148Z,100541.97
2022-10-22T12:08:43.624Z,100540.47
2022-10-22T12:18:48.345Z,100545.25
2022-10-22T12:28:51.494Z,100530.22
2022-10-22T12:38:56.229Z,100518.25
2022-10-22T12:49:01.068Z,100497.41
2022-10-22T12:59:09.119Z,100511.87
2022-10-22T13:09:20.441Z,100530.16
2022-10-22T13:19:49.233Z,100537.72
2022-10-22T13:29:52.515Z,100529.25
2022-10-22T13:39:56.947Z,100546.75
2022-10-22T13:50:04.118Z,100536.88
2022-10-22T14:00:12.643Z,100523.34
2022-10-22T14:10:17.862Z,100533.91
2022-10-22T14:20:24.228Z,100547.59
2022-10-22T14:30:29.656Z,100545.09
2022-10-22T14:40:34.241Z,100545.72
2022-10-22T14:50:37.272Z,100528.28
2022-10-22T15:00:43.569Z,100551.78
2022-10-22T15:10:46.855Z,100549.81
2022-10-22T15:20:57.987Z,100541.25
2022-10-22T15:31:01.796Z,100548.09
2022-10-22T15:41:07.486Z,100558.53
2022-10-22T15:51:12.936Z,100561.75
2022-10-22T16:01:17.447Z,100573.97
2022-10-22T16:11:20.616Z,100573.63
2022-10-22T16:21:25.698Z,100589.13
2022-10-22T16:31:29.165Z,100610.44
2022-10-22T16:41:36.309Z,100643.78
2022-10-22T16:51:39.525Z,100665.09
2022-10-22T17:01:43.995Z,100664.09
2022-10-22T17:11:47.413Z,100680.97
2022-10-22T17:21:53.541Z,100686.22
2022-10-22T17:31:56.845Z,100670.81
2022-10-22T17:42:01.673Z,100688.37
2022-10-22T17:52:04.923Z,100683.97
2022-10-22T18:02:11.228Z,100699.91
2022-10-22T18:12:14.857Z,100710.81
2022-10-22T18:22:19.295Z,100708.94
2022-10-22T18:32:22.488Z,100723.41
2022-10-22T18:42:30.439Z,100725.03
2022-10-22T18:52:36.256Z,100724.41
2022-10-22T19:02:41.169Z,100746.28
2022-10-22T19:12:44.603Z,100760.38
2022-10-22T19:22:50.842Z,100775.22
2022-10-22T19:32:54.564Z,100756.41
2022-10-22T19:42:59.129Z,100772.44
2022-10-22T19:53:02.607Z,100779.56
2022-10-22T20:03:07.471Z,100788.22
2022-10-22T20:13:10.659Z,100796.31
2022-10-22T20:23:15.166Z,100805.50
2022-10-22T20:33:18.225Z,100823.84
2022-10-22T20:43:22.661Z,100832.56
2022-10-22T20:53:26.094Z,100841.53
2022-10-22T21:03:30.542Z,100843.50
2022-10-22T21:13:33.843Z,100836.09
2022-10-22T21:23:38.413Z,100831.47
2022-10-22T21:33:41.574Z,100856.88
2022-10-22T21:43:46.686Z,100863.59
2022-10-22T21:53:49.841Z,100865.44
2022-10-22T22:03:54.458Z,100855.44
2022-10-22T22:13:58.913Z,100862.16
2022-10-22T22:24:04.135Z,100849.56
2022-10-22T22:34:08.753Z,100849.47
2022-10-22T22:44:13.307Z,100882.03
2022-10-22T22:54:16.410Z,100871.56
2022-10-22T23:04:23.806Z,100886.38
2022-10-22T23:14:26.991Z,100909.25
2022-10-22T23:24:31.541Z,100902.44
2022-10-22T23:34:34.834Z,100887.03
2022-10-22T23:44:39.337Z,100903.62
2022-10-22T23:54:42.723Z,100916.88
